sensor_id;sensor_type;location;lat;lon;timestamp;P1;durP1;ratioP1;P2;durP2;ratioP2
49626;SDS011;35527;54.616;39.786;2022-09-17T00:02:55;15.80;;;11.48;;
49626;SDS011;35527;54.616;39.786;2022-09-17T00:06:03;15.20;;;11.38;;
49626;SDS011;35527;54.616;39.786;2022-09-17T00:09:09;14.32;;;11.30;;
49626;SDS011;35527;54.616;39.786;2022-09-17T00:12:12;13.73;;;11.00;;
49626;SDS011;35527;54.616;39.786;2022-09-17T00:15:16;14.57;;;11.50;;
49626;SDS011;35527;54.616;39.786;2022-09-17T00:18:18;15.15;;;10.85;;
49626;SDS011;35527;54.616;39.786;2022-09-17T00:21:23;14.80;;;11.32;;
49626;SDS011;35527;54.616;39.786;2022-09-17T00:24:27;14.80;;;11.63;;
49626;SDS011;35527;54.616;39.786;2022-09-17T00:27:31;15.40;;;11.65;;
49626;SDS011;35527;54.616;39.786;2022-09-17T00:30:35;14.40;;;11.40;;
49626;SDS011;35527;54.616;39.786;2022-09-17T00:33:46;16.58;;;11.48;;
49626;SDS011;35527;54.616;39.786;2022-09-17T00:36:52;13.85;;;11.90;;
49626;SDS011;35527;54.616;39.786;2022-09-17T00:39:57;16.38;;;11.32;;
49626;SDS011;35527;54.616;39.786;2022-09-17T00:43:00;15.80;;;11.68;;
49626;SDS011;35527;54.616;39.786;2022-09-17T00:46:50;14.82;;;11.32;;
49626;SDS011;35527;54.616;39.786;2022-09-17T00:49:38;14.82;;;11.48;;
49626;SDS011;35527;54.616;39.786;2022-09-17T00:52:55;12.82;;;10.23;;
49626;SDS011;35527;54.616;39.786;2022-09-17T00:56:12;14.80;;;11.20;;
49626;SDS011;35527;54.616;39.786;2022-09-17T00:59:24;14.88;;;10.40;;
49626;SDS011;35527;54.616;39.786;2022-09-17T01:02:30;13.35;;;10.40;;
49626;SDS011;35527;54.616;39.786;2022-09-17T01:05:49;13.13;;;9.80;;
49626;SDS011;35527;54.616;39.786;2022-09-17T01:22:37;11.70;;;9.45;;
49626;SDS011;35527;54.616;39.786;2022-09-17T01:33:13;11.27;;;8.40;;
49626;SDS011;35527;54.616;39.786;2022-09-17T01:36:39;13.35;;;8.80;;
49626;SDS011;35527;54.616;39.786;2022-09-17T01:40:05;12.15;;;8.43;;
49626;SDS011;35527;54.616;39.786;2022-09-17T01:46:33;11.90;;;8.75;;
49626;SDS011;35527;54.616;39.786;2022-09-17T01:49:41;13.02;;;9.05;;
49626;SDS011;35527;54.616;39.786;2022-09-17T01:52:49;11.45;;;8.75;;
49626;SDS011;35527;54.616;39.786;2022-09-17T01:55:56;12.25;;;8.85;;
49626;SDS011;35527;54.616;39.786;2022-09-17T01:59:09;13.05;;;9.45;;
49626;SDS011;35527;54.616;39.786;2022-09-17T02:02:26;11.65;;;8.93;;
49626;SDS011;35527;54.616;39.786;2022-09-17T02:05:42;11.77;;;9.05;;
49626;SDS011;35527;54.616;39.786;2022-09-17T02:08:55;11.45;;;9.05;;
49626;SDS011;35527;54.616;39.786;2022-09-17T02:12:04;13.18;;;9.90;;
49626;SDS011;35527;54.616;39.786;2022-09-17T02:15:16;12.02;;;9.60;;
49626;SDS011;35527;54.616;39.786;2022-09-17T02:18:31;14.18;;;9.95;;
49626;SDS011;35527;54.616;39.786;2022-09-17T02:21:42;13.88;;;9.85;;
49626;SDS011;35527;54.616;39.786;2022-09-17T02:31:17;16.25;;;11.18;;
49626;SDS011;35527;54.616;39.786;2022-09-17T02:34:19;15.10;;;11.38;;
49626;SDS011;35527;54.616;39.786;2022-09-17T02:37:26;17.15;;;12.23;;
49626;SDS011;35527;54.616;39.786;2022-09-17T02:40:30;17.75;;;12.38;;
49626;SDS011;35527;54.616;39.786;2022-09-17T02:53:36;16.05;;;12.77;;
49626;SDS011;35527;54.616;39.786;2022-09-17T02:57:05;16.67;;;12.85;;
49626;SDS011;35527;54.616;39.786;2022-09-17T03:03:32;14.63;;;12.30;;
49626;SDS011;35527;54.616;39.786;2022-09-17T03:06:40;17.10;;;12.43;;
49626;SDS011;35527;54.616;39.786;2022-09-17T03:09:49;14.98;;;10.93;;
49626;SDS011;35527;54.616;39.786;2022-09-17T03:12:52;17.50;;;11.82;;
49626;SDS011;35527;54.616;39.786;2022-09-17T03:15:58;16.48;;;12.93;;
49626;SDS011;35527;54.616;39.786;2022-09-17T03:19:01;16.73;;;12.77;;
49626;SDS011;35527;54.616;39.786;2022-09-17T03:22:06;15.75;;;11.73;;
49626;SDS011;35527;54.616;39.786;2022-09-17T03:25:09;10.93;;;8.50;;
49626;SDS011;35527;54.616;39.786;2022-09-17T03:28:17;12.82;;;8.68;;
49626;SDS011;35527;54.616;39.786;2022-09-17T03:31:19;10.93;;;7.20;;
49626;SDS011;35527;54.616;39.786;2022-09-17T03:34:26;10.25;;;6.60;;
49626;SDS011;35527;54.616;39.786;2022-09-17T03:37:57;7.97;;;5.85;;
49626;SDS011;35527;54.616;39.786;2022-09-17T03:41:02;11.13;;;6.78;;
49626;SDS011;35527;54.616;39.786;2022-09-17T03:44:08;8.07;;;5.80;;
49626;SDS011;35527;54.616;39.786;2022-09-17T03:47:17;8.32;;;5.43;;
49626;SDS011;35527;54.616;39.786;2022-09-17T03:50:20;7.55;;;5.45;;
49626;SDS011;35527;54.616;39.786;2022-09-17T03:53:25;9.77;;;5.68;;
49626;SDS011;35527;54.616;39.786;2022-09-17T03:56:28;8.80;;;5.03;;
49626;SDS011;35527;54.616;39.786;2022-09-17T03:59:32;8.77;;;4.80;;
49626;SDS011;35527;54.616;39.786;2022-09-17T04:02:34;9.30;;;5.10;;
49626;SDS011;35527;54.616;39.786;2022-09-17T04:05:39;8.35;;;4.70;;
49626;SDS011;35527;54.616;39.786;2022-09-17T04:08:46;9.05;;;4.45;;
49626;SDS011;35527;54.616;39.786;2022-09-17T04:11:57;9.93;;;5.18;;
49626;SDS011;35527;54.616;39.786;2022-09-17T04:15:00;5.95;;;3.83;;
49626;SDS011;35527;54.616;39.786;2022-09-17T04:18:06;7.20;;;4.40;;
49626;SDS011;35527;54.616;39.786;2022-09-17T04:21:09;7.60;;;4.05;;
49626;SDS011;35527;54.616;39.786;2022-09-17T04:24:13;9.90;;;4.00;;
49626;SDS011;35527;54.616;39.786;2022-09-17T04:27:16;7.47;;;3.90;;
49626;SDS011;35527;54.616;39.786;2022-09-17T04:30:19;6.95;;;3.85;;
49626;SDS011;35527;54.616;39.786;2022-09-17T04:33:22;6.82;;;3.40;;
49626;SDS011;35527;54.616;39.786;2022-09-17T04:36:26;5.88;;;3.40;;
49626;SDS011;35527;54.616;39.786;2022-09-17T04:39:28;7.90;;;3.63;;
49626;SDS011;35527;54.616;39.786;2022-09-17T04:42:31;7.40;;;3.42;;
49626;SDS011;35527;54.616;39.786;2022-09-17T04:45:37;7.30;;;3.75;;
49626;SDS011;35527;54.616;39.786;2022-09-17T04:48:43;6.90;;;3.20;;
49626;SDS011;35527;54.616;39.786;2022-09-17T04:51:46;7.38;;;3.47;;
49626;SDS011;35527;54.616;39.786;2022-09-17T04:54:48;7.18;;;3.28;;
49626;SDS011;35527;54.616;39.786;2022-09-17T04:57:53;7.18;;;3.30;;
49626;SDS011;35527;54.616;39.786;2022-09-17T05:00:57;7.13;;;2.97;;
49626;SDS011;35527;54.616;39.786;2022-09-17T05:04:01;6.55;;;3.25;;
49626;SDS011;35527;54.616;39.786;2022-09-17T05:07:05;7.32;;;2.95;;
49626;SDS011;35527;54.616;39.786;2022-09-17T05:10:10;8.45;;;3.05;;
49626;SDS011;35527;54.616;39.786;2022-09-17T05:13:15;7.18;;;3.28;;
49626;SDS011;35527;54.616;39.786;2022-09-17T05:16:18;6.32;;;3.25;;
49626;SDS011;35527;54.616;39.786;2022-09-17T05:19:22;6.40;;;3.00;;
49626;SDS011;35527;54.616;39.786;2022-09-17T05:22:26;6.88;;;3.10;;
49626;SDS011;35527;54.616;39.786;2022-09-17T05:25:34;5.55;;;3.33;;
49626;SDS011;35527;54.616;39.786;2022-09-17T05:28:38;6.63;;;3.47;;
49626;SDS011;35527;54.616;39.786;2022-09-17T05:31:41;7.95;;;3.55;;
49626;SDS011;35527;54.616;39.786;2022-09-17T05:34:43;7.55;;;3.45;;
49626;SDS011;35527;54.616;39.786;2022-09-17T05:37:50;7.68;;;3.85;;
49626;SDS011;35527;54.616;39.786;2022-09-17T05:40:56;7.93;;;3.85;;
49626;SDS011;35527;54.616;39.786;2022-09-17T05:43:59;10.27;;;3.67;;
49626;SDS011;35527;54.616;39.786;2022-09-17T05:47:03;10.63;;;4.13;;
49626;SDS011;35527;54.616;39.786;2022-09-17T05:50:08;8.43;;;3.47;;
49626;SDS011;35527;54.616;39.786;2022-09-17T05:53:11;7.90;;;3.50;;
49626;SDS011;35527;54.616;39.786;2022-09-17T05:56:17;7.32;;;4.10;;
49626;SDS011;35527;54.616;39.786;2022-09-17T05:59:21;7.22;;;3.60;;
49626;SDS011;35527;54.616;39.786;2022-09-17T06:02:29;13.20;;;4.90;;
49626;SDS011;35527;54.616;39.786;2022-09-17T06:05:33;10.30;;;4.60;;
49626;SDS011;35527;54.616;39.786;2022-09-17T06:08:37;11.32;;;4.82;;
49626;SDS011;35527;54.616;39.786;2022-09-17T06:11:44;13.40;;;4.75;;
49626;SDS011;35527;54.616;39.786;2022-09-17T06:14:51;9.80;;;4.03;;
49626;SDS011;35527;54.616;39.786;2022-09-17T06:17:55;10.85;;;3.67;;
49626;SDS011;35527;54.616;39.786;2022-09-17T06:20:58;5.57;;;2.88;;
49626;SDS011;35527;54.616;39.786;2022-09-17T06:24:02;8.18;;;3.47;;
49626;SDS011;35527;54.616;39.786;2022-09-17T06:27:36;8.30;;;3.22;;
49626;SDS011;35527;54.616;39.786;2022-09-17T06:30:40;10.80;;;3.38;;
49626;SDS011;35527;54.616;39.786;2022-09-17T06:33:43;8.30;;;3.30;;
49626;SDS011;35527;54.616;39.786;2022-09-17T06:36:47;6.03;;;2.63;;
49626;SDS011;35527;54.616;39.786;2022-09-17T06:39:52;6.43;;;2.60;;
49626;SDS011;35527;54.616;39.786;2022-09-17T06:42:56;7.75;;;2.97;;
49626;SDS011;35527;54.616;39.786;2022-09-17T06:46:03;12.13;;;6.32;;
49626;SDS011;35527;54.616;39.786;2022-09-17T06:49:09;7.93;;;3.35;;
49626;SDS011;35527;54.616;39.786;2022-09-17T06:52:16;4.70;;;2.25;;
49626;SDS011;35527;54.616;39.786;2022-09-17T06:55:21;5.65;;;2.38;;
49626;SDS011;35527;54.616;39.786;2022-09-17T06:58:27;4.85;;;2.47;;
49626;SDS011;35527;54.616;39.786;2022-09-17T07:01:31;4.13;;;2.10;;
49626;SDS011;35527;54.616;39.786;2022-09-17T07:04:39;6.80;;;2.70;;
49626;SDS011;35527;54.616;39.786;2022-09-17T07:07:42;6.67;;;2.30;;
49626;SDS011;35527;54.616;39.786;2022-09-17T07:10:45;5.25;;;2.17;;
49626;SDS011;35527;54.616;39.786;2022-09-17T07:13:47;5.65;;;2.15;;
49626;SDS011;35527;54.616;39.786;2022-09-17T07:16:52;6.97;;;1.95;;
49626;SDS011;35527;54.616;39.786;2022-09-17T07:19:55;7.88;;;2.22;;
49626;SDS011;35527;54.616;39.786;2022-09-17T07:22:59;4.38;;;1.85;;
49626;SDS011;35527;54.616;39.786;2022-09-17T07:26:06;7.10;;;1.77;;
49626;SDS011;35527;54.616;39.786;2022-09-17T07:29:18;5.15;;;1.83;;
49626;SDS011;35527;54.616;39.786;2022-09-17T07:32:21;5.53;;;1.90;;
49626;SDS011;35527;54.616;39.786;2022-09-17T07:35:25;5.30;;;2.10;;
49626;SDS011;35527;54.616;39.786;2022-09-17T07:38:28;4.75;;;1.65;;
49626;SDS011;35527;54.616;39.786;2022-09-17T07:41:33;6.90;;;1.88;;
49626;SDS011;35527;54.616;39.786;2022-09-17T07:44:36;5.50;;;1.85;;
49626;SDS011;35527;54.616;39.786;2022-09-17T07:47:41;4.97;;;1.70;;
49626;SDS011;35527;54.616;39.786;2022-09-17T07:50:45;6.45;;;1.95;;
49626;SDS011;35527;54.616;39.786;2022-09-17T07:53:55;5.25;;;1.85;;
49626;SDS011;35527;54.616;39.786;2022-09-17T07:56:59;8.18;;;1.92;;
49626;SDS011;35527;54.616;39.786;2022-09-17T08:00:04;6.15;;;1.98;;
49626;SDS011;35527;54.616;39.786;2022-09-17T08:03:12;4.55;;;1.90;;
49626;SDS011;35527;54.616;39.786;2022-09-17T08:06:20;7.85;;;2.10;;
49626;SDS011;35527;54.616;39.786;2022-09-17T08:09:27;4.70;;;1.90;;
49626;SDS011;35527;54.616;39.786;2022-09-17T08:12:30;7.32;;;2.10;;
49626;SDS011;35527;54.616;39.786;2022-09-17T08:15:33;5.43;;;1.90;;
49626;SDS011;35527;54.616;39.786;2022-09-17T08:18:37;6.15;;;2.05;;
49626;SDS011;35527;54.616;39.786;2022-09-17T08:21:40;7.82;;;2.20;;
49626;SDS011;35527;54.616;39.786;2022-09-17T08:24:43;4.53;;;1.75;;
49626;SDS011;35527;54.616;39.786;2022-09-17T08:27:47;5.60;;;1.70;;
49626;SDS011;35527;54.616;39.786;2022-09-17T08:30:52;5.45;;;2.30;;
49626;SDS011;35527;54.616;39.786;2022-09-17T08:33:55;5.83;;;1.90;;
49626;SDS011;35527;54.616;39.786;2022-09-17T08:37:01;3.50;;;1.48;;
49626;SDS011;35527;54.616;39.786;2022-09-17T08:40:05;5.15;;;1.70;;
49626;SDS011;35527;54.616;39.786;2022-09-17T08:43:14;5.22;;;1.90;;
49626;SDS011;35527;54.616;39.786;2022-09-17T08:46:23;4.85;;;1.63;;
49626;SDS011;35527;54.616;39.786;2022-09-17T08:56:02;4.83;;;1.70;;
49626;SDS011;35527;54.616;39.786;2022-09-17T08:59:24;5.32;;;1.48;;
49626;SDS011;35527;54.616;39.786;2022-09-17T09:06:07;5.60;;;1.63;;
49626;SDS011;35527;54.616;39.786;2022-09-17T09:09:16;5.00;;;1.77;;
49626;SDS011;35527;54.616;39.786;2022-09-17T09:12:24;4.65;;;1.70;;
49626;SDS011;35527;54.616;39.786;2022-09-17T09:19:09;6.40;;;1.60;;
49626;SDS011;35527;54.616;39.786;2022-09-17T09:25:54;3.15;;;1.23;;
49626;SDS011;35527;54.616;39.786;2022-09-17T09:32:32;5.32;;;1.90;;
49626;SDS011;35527;54.616;39.786;2022-09-17T09:35:57;5.68;;;1.70;;
49626;SDS011;35527;54.616;39.786;2022-09-17T09:39:13;5.03;;;1.70;;
49626;SDS011;35527;54.616;39.786;2022-09-17T09:49:16;6.20;;;1.70;;
49626;SDS011;35527;54.616;39.786;2022-09-17T09:58:56;5.35;;;1.60;;
49626;SDS011;35527;54.616;39.786;2022-09-17T10:02:02;3.88;;;1.50;;
49626;SDS011;35527;54.616;39.786;2022-09-17T10:05:08;5.45;;;1.85;;
49626;SDS011;35527;54.616;39.786;2022-09-17T10:08:18;7.65;;;2.10;;
49626;SDS011;35527;54.616;39.786;2022-09-17T10:11:24;6.40;;;1.73;;
49626;SDS011;35527;54.616;39.786;2022-09-17T10:14:31;4.78;;;1.67;;
49626;SDS011;35527;54.616;39.786;2022-09-17T10:20:58;7.78;;;1.90;;
49626;SDS011;35527;54.616;39.786;2022-09-17T10:24:28;6.93;;;2.28;;
49626;SDS011;35527;54.616;39.786;2022-09-17T10:27:52;5.97;;;1.80;;
49626;SDS011;35527;54.616;39.786;2022-09-17T10:31:01;4.05;;;1.58;;
49626;SDS011;35527;54.616;39.786;2022-09-17T10:34:11;7.43;;;1.90;;
49626;SDS011;35527;54.616;39.786;2022-09-17T10:40:41;5.97;;;1.60;;
49626;SDS011;35527;54.616;39.786;2022-09-17T10:44:15;4.53;;;1.60;;
49626;SDS011;35527;54.616;39.786;2022-09-17T10:47:36;3.28;;;1.30;;
49626;SDS011;35527;54.616;39.786;2022-09-17T10:50:50;5.05;;;1.45;;
49626;SDS011;35527;54.616;39.786;2022-09-17T10:57:21;6.78;;;1.60;;
49626;SDS011;35527;54.616;39.786;2022-09-17T11:07:18;3.72;;;1.60;;
49626;SDS011;35527;54.616;39.786;2022-09-17T11:27:11;4.68;;;1.50;;
49626;SDS011;35527;54.616;39.786;2022-09-17T11:30:29;5.40;;;1.67;;
49626;SDS011;35527;54.616;39.786;2022-09-17T11:37:45;4.00;;;1.60;;
49626;SDS011;35527;54.616;39.786;2022-09-17T11:47:15;5.60;;;1.58;;
49626;SDS011;35527;54.616;39.786;2022-09-17T11:50:24;3.20;;;1.23;;
49626;SDS011;35527;54.616;39.786;2022-09-17T11:53:46;3.00;;;1.30;;
49626;SDS011;35527;54.616;39.786;2022-09-17T11:57:08;7.72;;;1.50;;
49626;SDS011;35527;54.616;39.786;2022-09-17T12:00:18;3.85;;;1.25;;
49626;SDS011;35527;54.616;39.786;2022-09-17T12:03:29;5.63;;;1.50;;
49626;SDS011;35527;54.616;39.786;2022-09-17T12:06:51;3.47;;;1.33;;
49626;SDS011;35527;54.616;39.786;2022-09-17T12:13:41;3.05;;;1.30;;
49626;SDS011;35527;54.616;39.786;2022-09-17T12:16:48;4.20;;;1.30;;
49626;SDS011;35527;54.616;39.786;2022-09-17T12:19:56;3.08;;;1.20;;
49626;SDS011;35527;54.616;39.786;2022-09-17T12:23:09;5.05;;;1.60;;
49626;SDS011;35527;54.616;39.786;2022-09-17T12:36:44;3.30;;;1.38;;
49626;SDS011;35527;54.616;39.786;2022-09-17T12:49:46;4.63;;;1.20;;
49626;SDS011;35527;54.616;39.786;2022-09-17T13:03:23;4.75;;;1.70;;
49626;SDS011;35527;54.616;39.786;2022-09-17T13:16:41;7.25;;;1.80;;
49626;SDS011;35527;54.616;39.786;2022-09-17T13:23:33;6.18;;;1.70;;
49626;SDS011;35527;54.616;39.786;2022-09-17T13:26:45;5.03;;;1.60;;
49626;SDS011;35527;54.616;39.786;2022-09-17T13:32:57;3.63;;;1.20;;
49626;SDS011;35527;54.616;39.786;2022-09-17T13:36:03;5.40;;;1.60;;
49626;SDS011;35527;54.616;39.786;2022-09-17T13:39:39;6.05;;;1.40;;
49626;SDS011;35527;54.616;39.786;2022-09-17T13:42:45;4.38;;;1.55;;
49626;SDS011;35527;54.616;39.786;2022-09-17T13:49:10;7.93;;;3.60;;
49626;SDS011;35527;54.616;39.786;2022-09-17T13:59:03;6.53;;;1.73;;
49626;SDS011;35527;54.616;39.786;2022-09-17T14:05:30;4.15;;;1.60;;
49626;SDS011;35527;54.616;39.786;2022-09-17T14:12:03;6.50;;;2.10;;
49626;SDS011;35527;54.616;39.786;2022-09-17T14:22:59;7.68;;;3.47;;
49626;SDS011;35527;54.616;39.786;2022-09-17T14:26:04;10.10;;;6.68;;
49626;SDS011;35527;54.616;39.786;2022-09-17T14:36:21;14.15;;;6.95;;
49626;SDS011;35527;54.616;39.786;2022-09-17T14:39:34;9.48;;;6.15;;
49626;SDS011;35527;54.616;39.786;2022-09-17T14:42:40;13.98;;;8.32;;
49626;SDS011;35527;54.616;39.786;2022-09-17T14:45:43;12.00;;;7.60;;
49626;SDS011;35527;54.616;39.786;2022-09-17T14:48:50;9.43;;;5.40;;
49626;SDS011;35527;54.616;39.786;2022-09-17T14:51:58;6.07;;;3.00;;
49626;SDS011;35527;54.616;39.786;2022-09-17T14:55:07;7.88;;;3.00;;
49626;SDS011;35527;54.616;39.786;2022-09-17T14:58:30;6.28;;;2.58;;
49626;SDS011;35527;54.616;39.786;2022-09-17T15:01:37;7.38;;;3.97;;
49626;SDS011;35527;54.616;39.786;2022-09-17T15:04:42;8.43;;;4.90;;
49626;SDS011;35527;54.616;39.786;2022-09-17T15:07:45;7.07;;;3.80;;
49626;SDS011;35527;54.616;39.786;2022-09-17T15:10:51;8.05;;;3.90;;
49626;SDS011;35527;54.616;39.786;2022-09-17T15:13:56;8.57;;;3.70;;
49626;SDS011;35527;54.616;39.786;2022-09-17T15:17:04;10.38;;;3.92;;
49626;SDS011;35527;54.616;39.786;2022-09-17T15:20:15;8.68;;;4.03;;
49626;SDS011;35527;54.616;39.786;2022-09-17T15:23:23;7.63;;;3.70;;
49626;SDS011;35527;54.616;39.786;2022-09-17T15:26:31;10.27;;;4.20;;
49626;SDS011;35527;54.616;39.786;2022-09-17T15:29:42;8.73;;;5.03;;
49626;SDS011;35527;54.616;39.786;2022-09-17T15:32:54;9.32;;;3.95;;
49626;SDS011;35527;54.616;39.786;2022-09-17T15:39:27;5.68;;;2.67;;
49626;SDS011;35527;54.616;39.786;2022-09-17T15:42:36;7.82;;;2.70;;
49626;SDS011;35527;54.616;39.786;2022-09-17T15:45:39;11.40;;;4.03;;
49626;SDS011;35527;54.616;39.786;2022-09-17T15:48:45;8.30;;;3.35;;
49626;SDS011;35527;54.616;39.786;2022-09-17T15:51:49;7.60;;;3.22;;
49626;SDS011;35527;54.616;39.786;2022-09-17T15:54:57;7.53;;;3.67;;
49626;SDS011;35527;54.616;39.786;2022-09-17T15:58:04;7.97;;;4.45;;
49626;SDS011;35527;54.616;39.786;2022-09-17T16:04:31;8.05;;;3.20;;
49626;SDS011;35527;54.616;39.786;2022-09-17T16:07:41;7.93;;;2.55;;
49626;SDS011;35527;54.616;39.786;2022-09-17T16:10:48;9.65;;;2.97;;
49626;SDS011;35527;54.616;39.786;2022-09-17T16:13:52;13.02;;;3.72;;
49626;SDS011;35527;54.616;39.786;2022-09-17T16:16:58;8.13;;;2.42;;
49626;SDS011;35527;54.616;39.786;2022-09-17T16:20:07;7.10;;;2.70;;
49626;SDS011;35527;54.616;39.786;2022-09-17T16:23:23;8.73;;;2.47;;
49626;SDS011;35527;54.616;39.786;2022-09-17T16:26:32;5.68;;;1.95;;
49626;SDS011;35527;54.616;39.786;2022-09-17T16:29:36;7.30;;;2.13;;
49626;SDS011;35527;54.616;39.786;2022-09-17T16:32:40;6.70;;;2.25;;
49626;SDS011;35527;54.616;39.786;2022-09-17T16:35:43;5.75;;;2.45;;
49626;SDS011;35527;54.616;39.786;2022-09-17T16:38:46;7.88;;;2.47;;
49626;SDS011;35527;54.616;39.786;2022-09-17T16:41:52;8.35;;;2.63;;
49626;SDS011;35527;54.616;39.786;2022-09-17T16:44:55;10.05;;;2.72;;
49626;SDS011;35527;54.616;39.786;2022-09-17T16:47:58;7.75;;;2.47;;
49626;SDS011;35527;54.616;39.786;2022-09-17T16:51:08;7.35;;;2.58;;
49626;SDS011;35527;54.616;39.786;2022-09-17T16:54:13;11.13;;;3.47;;
49626;SDS011;35527;54.616;39.786;2022-09-17T16:57:20;12.00;;;4.20;;
49626;SDS011;35527;54.616;39.786;2022-09-17T17:00:23;15.43;;;4.10;;
49626;SDS011;35527;54.616;39.786;2022-09-17T17:03:28;10.70;;;3.95;;
49626;SDS011;35527;54.616;39.786;2022-09-17T17:06:32;16.67;;;4.78;;
49626;SDS011;35527;54.616;39.786;2022-09-17T17:09:36;11.20;;;4.40;;
49626;SDS011;35527;54.616;39.786;2022-09-17T17:12:39;8.88;;;4.07;;
49626;SDS011;35527;54.616;39.786;2022-09-17T17:15:43;8.13;;;4.18;;
49626;SDS011;35527;54.616;39.786;2022-09-17T17:18:47;10.32;;;4.53;;
49626;SDS011;35527;54.616;39.786;2022-09-17T17:21:53;10.52;;;5.07;;
49626;SDS011;35527;54.616;39.786;2022-09-17T17:24:56;10.50;;;5.15;;
49626;SDS011;35527;54.616;39.786;2022-09-17T17:28:01;12.10;;;5.70;;
49626;SDS011;35527;54.616;39.786;2022-09-17T17:31:09;13.10;;;4.90;;
49626;SDS011;35527;54.616;39.786;2022-09-17T17:34:13;11.07;;;3.90;;
49626;SDS011;35527;54.616;39.786;2022-09-17T17:37:17;6.90;;;3.35;;
49626;SDS011;35527;54.616;39.786;2022-09-17T17:40:23;11.63;;;4.38;;
49626;SDS011;35527;54.616;39.786;2022-09-17T17:43:29;10.38;;;3.55;;
49626;SDS011;35527;54.616;39.786;2022-09-17T17:46:37;6.50;;;3.00;;
49626;SDS011;35527;54.616;39.786;2022-09-17T17:49:41;8.20;;;2.72;;
49626;SDS011;35527;54.616;39.786;2022-09-17T17:52:48;7.85;;;3.10;;
49626;SDS011;35527;54.616;39.786;2022-09-17T17:55:56;9.40;;;3.03;;
49626;SDS011;35527;54.616;39.786;2022-09-17T17:59:01;7.28;;;2.88;;
49626;SDS011;35527;54.616;39.786;2022-09-17T18:02:06;6.65;;;2.58;;
49626;SDS011;35527;54.616;39.786;2022-09-17T18:05:11;7.43;;;2.53;;
49626;SDS011;35527;54.616;39.786;2022-09-17T18:08:16;4.85;;;2.40;;
49626;SDS011;35527;54.616;39.786;2022-09-17T18:11:23;7.10;;;3.20;;
49626;SDS011;35527;54.616;39.786;2022-09-17T18:14:27;5.28;;;3.08;;
49626;SDS011;35527;54.616;39.786;2022-09-17T18:17:30;8.80;;;3.42;;
49626;SDS011;35527;54.616;39.786;2022-09-17T18:20:33;10.00;;;3.20;;
49626;SDS011;35527;54.616;39.786;2022-09-17T18:23:37;6.50;;;3.03;;
49626;SDS011;35527;54.616;39.786;2022-09-17T18:26:41;6.82;;;3.17;;
49626;SDS011;35527;54.616;39.786;2022-09-17T18:29:44;6.40;;;2.88;;
49626;SDS011;35527;54.616;39.786;2022-09-17T18:32:50;8.65;;;3.10;;
49626;SDS011;35527;54.616;39.786;2022-09-17T18:36:02;5.82;;;2.80;;
49626;SDS011;35527;54.616;39.786;2022-09-17T18:39:09;5.00;;;3.35;;
49626;SDS011;35527;54.616;39.786;2022-09-17T18:42:36;7.10;;;3.35;;
49626;SDS011;35527;54.616;39.786;2022-09-17T18:45:41;6.85;;;3.58;;
49626;SDS011;35527;54.616;39.786;2022-09-17T18:48:44;6.82;;;2.83;;
49626;SDS011;35527;54.616;39.786;2022-09-17T18:51:47;7.25;;;2.80;;
49626;SDS011;35527;54.616;39.786;2022-09-17T18:54:51;5.82;;;2.90;;
49626;SDS011;35527;54.616;39.786;2022-09-17T18:57:57;7.13;;;2.90;;
49626;SDS011;35527;54.616;39.786;2022-09-17T19:01:05;5.68;;;2.42;;
49626;SDS011;35527;54.616;39.786;2022-09-17T19:04:08;6.13;;;2.42;;
49626;SDS011;35527;54.616;39.786;2022-09-17T19:07:13;6.32;;;2.40;;
49626;SDS011;35527;54.616;39.786;2022-09-17T19:10:16;4.75;;;2.42;;
49626;SDS011;35527;54.616;39.786;2022-09-17T19:13:23;6.35;;;2.17;;
49626;SDS011;35527;54.616;39.786;2022-09-17T19:16:26;6.93;;;2.40;;
49626;SDS011;35527;54.616;39.786;2022-09-17T19:19:29;5.63;;;2.10;;
49626;SDS011;35527;54.616;39.786;2022-09-17T19:22:36;7.22;;;2.20;;
49626;SDS011;35527;54.616;39.786;2022-09-17T19:25:42;6.38;;;2.63;;
49626;SDS011;35527;54.616;39.786;2022-09-17T19:28:45;6.22;;;2.40;;
49626;SDS011;35527;54.616;39.786;2022-09-17T19:31:48;6.88;;;2.33;;
49626;SDS011;35527;54.616;39.786;2022-09-17T19:34:51;5.38;;;2.70;;
49626;SDS011;35527;54.616;39.786;2022-09-17T19:37:57;6.53;;;2.10;;
49626;SDS011;35527;54.616;39.786;2022-09-17T19:41:01;5.90;;;2.72;;
49626;SDS011;35527;54.616;39.786;2022-09-17T19:44:34;5.05;;;2.33;;
49626;SDS011;35527;54.616;39.786;2022-09-17T19:47:39;4.75;;;2.08;;
49626;SDS011;35527;54.616;39.786;2022-09-17T19:50:49;6.75;;;2.30;;
49626;SDS011;35527;54.616;39.786;2022-09-17T19:53:55;7.53;;;2.30;;
49626;SDS011;35527;54.616;39.786;2022-09-17T19:56:58;4.50;;;2.40;;
49626;SDS011;35527;54.616;39.786;2022-09-17T20:00:06;6.15;;;2.60;;
49626;SDS011;35527;54.616;39.786;2022-09-17T20:03:14;6.43;;;2.60;;
49626;SDS011;35527;54.616;39.786;2022-09-17T20:06:20;4.95;;;2.40;;
49626;SDS011;35527;54.616;39.786;2022-09-17T20:09:25;5.88;;;2.58;;
49626;SDS011;35527;54.616;39.786;2022-09-17T20:12:29;5.53;;;2.53;;
49626;SDS011;35527;54.616;39.786;2022-09-17T20:15:38;6.97;;;2.40;;
49626;SDS011;35527;54.616;39.786;2022-09-17T20:18:41;5.60;;;2.65;;
49626;SDS011;35527;54.616;39.786;2022-09-17T20:21:47;5.55;;;2.45;;
49626;SDS011;35527;54.616;39.786;2022-09-17T20:24:52;7.63;;;2.75;;
49626;SDS011;35527;54.616;39.786;2022-09-17T20:27:57;6.90;;;3.03;;
49626;SDS011;35527;54.616;39.786;2022-09-17T20:31:06;8.65;;;3.38;;
49626;SDS011;35527;54.616;39.786;2022-09-17T20:34:18;7.07;;;3.20;;
49626;SDS011;35527;54.616;39.786;2022-09-17T20:37:21;9.90;;;4.60;;
49626;SDS011;35527;54.616;39.786;2022-09-17T20:40:39;9.80;;;3.95;;
49626;SDS011;35527;54.616;39.786;2022-09-17T20:43:42;9.63;;;4.00;;
49626;SDS011;35527;54.616;39.786;2022-09-17T20:46:51;9.60;;;3.30;;
49626;SDS011;35527;54.616;39.786;2022-09-17T20:50:19;10.02;;;3.88;;
49626;SDS011;35527;54.616;39.786;2022-09-17T20:53:23;9.13;;;3.80;;
49626;SDS011;35527;54.616;39.786;2022-09-17T20:56:28;5.95;;;2.88;;
49626;SDS011;35527;54.616;39.786;2022-09-17T20:59:32;6.53;;;2.58;;
49626;SDS011;35527;54.616;39.786;2022-09-17T21:03:00;4.72;;;2.33;;
49626;SDS011;35527;54.616;39.786;2022-09-17T21:06:05;5.78;;;2.83;;
49626;SDS011;35527;54.616;39.786;2022-09-17T21:09:11;6.85;;;2.70;;
49626;SDS011;35527;54.616;39.786;2022-09-17T21:12:18;6.55;;;2.45;;
49626;SDS011;35527;54.616;39.786;2022-09-17T21:15:27;6.85;;;2.40;;
49626;SDS011;35527;54.616;39.786;2022-09-17T21:18:32;8.67;;;2.47;;
49626;SDS011;35527;54.616;39.786;2022-09-17T21:21:38;5.85;;;2.70;;
49626;SDS011;35527;54.616;39.786;2022-09-17T21:24:43;5.68;;;2.53;;
49626;SDS011;35527;54.616;39.786;2022-09-17T21:27:46;6.60;;;2.67;;
49626;SDS011;35527;54.616;39.786;2022-09-17T21:30:50;4.88;;;2.58;;
49626;SDS011;35527;54.616;39.786;2022-09-17T21:34:17;7.53;;;2.67;;
49626;SDS011;35527;54.616;39.786;2022-09-17T21:37:21;4.90;;;2.60;;
49626;SDS011;35527;54.616;39.786;2022-09-17T21:40:25;4.90;;;2.20;;
49626;SDS011;35527;54.616;39.786;2022-09-17T21:43:29;5.32;;;2.50;;
49626;SDS011;35527;54.616;39.786;2022-09-17T21:46:33;5.82;;;2.40;;
49626;SDS011;35527;54.616;39.786;2022-09-17T21:49:38;6.13;;;2.78;;
49626;SDS011;35527;54.616;39.786;2022-09-17T21:52:46;7.00;;;2.83;;
49626;SDS011;35527;54.616;39.786;2022-09-17T21:55:50;5.32;;;2.72;;
49626;SDS011;35527;54.616;39.786;2022-09-17T21:58:55;5.60;;;2.80;;
49626;SDS011;35527;54.616;39.786;2022-09-17T22:02:01;5.95;;;2.80;;